sensor_id;sensor_type;location;lat;lon;timestamp;pressure;altitude;pressure_sealevel;temperature;humidity
7668;BME280;3876;42.204;24.686;2023-10-08T00:00:25;99686.44;;;16.91;50.76
7668;BME280;3876;42.204;24.686;2023-10-08T00:03:09;99684.75;;;16.90;51.71
7668;BME280;3876;42.204;24.686;2023-10-08T00:05:36;99687.28;;;16.92;51.90
7668;BME280;3876;42.204;24.686;2023-10-08T00:08:03;99676.25;;;16.88;52.68
7668;BME280;3876;42.204;24.686;2023-10-08T00:10:34;99654.81;;;16.69;53.14
7668;BME280;3876;42.204;24.686;2023-10-08T00:13:04;99674.88;;;16.81;53.32
7668;BME280;3876;42.204;24.686;2023-10-08T00:15:33;99647.34;;;16.63;53.74
7668;BME280;3876;42.204;24.686;2023-10-08T00:18:02;99670.34;;;16.69;54.18
7668;BME280;3876;42.204;24.686;2023-10-08T00:20:31;99662.78;;;16.64;54.74
7668;BME280;3876;42.204;24.686;2023-10-08T00:23:01;99671.34;;;16.66;54.77
7668;BME280;3876;42.204;24.686;2023-10-08T00:25:33;99673.16;;;16.64;54.62
7668;BME280;3876;42.204;24.686;2023-10-08T00:28:08;99673.16;;;16.64;55.02
7668;BME280;3876;42.204;24.686;2023-10-08T00:30:39;99669.81;;;16.62;54.80
7668;BME280;3876;42.204;24.686;2023-10-08T00:33:07;99666.47;;;16.60;54.87
7668;BME280;3876;42.204;24.686;2023-10-08T00:35:37;99663.94;;;16.59;55.38
7668;BME280;3876;42.204;24.686;2023-10-08T00:38:06;99659.78;;;16.56;55.18
7668;BME280;3876;42.204;24.686;2023-10-08T00:40:40;99668.13;;;16.61;55.45
7668;BME280;3876;42.204;24.686;2023-10-08T00:43:28;99666.47;;;16.60;55.34
7668;BME280;3876;42.204;24.686;2023-10-08T00:45:56;99666.72;;;16.54;55.46
7668;BME280;3876;42.204;24.686;2023-10-08T00:48:24;99662.63;;;16.50;55.16
7668;BME280;3876;42.204;24.686;2023-10-08T00:50:54;99655.88;;;16.48;55.25
7668;BME280;3876;42.204;24.686;2023-10-08T00:53:34;99650.00;;;16.44;54.85
7668;BME280;3876;42.204;24.686;2023-10-08T00:56:04;99651.22;;;16.37;55.38
7668;BME280;3876;42.204;24.686;2023-10-08T00:58:40;99649.69;;;16.33;55.48
7668;BME280;3876;42.204;24.686;2023-10-08T01:01:11;99651.75;;;16.26;56.00
7668;BME280;3876;42.204;24.686;2023-10-08T01:03:42;99645.13;;;16.21;56.07
7668;BME280;3876;42.204;24.686;2023-10-08T01:06:10;99647.50;;;16.08;56.94
7668;BME280;3876;42.204;24.686;2023-10-08T01:08:38;99635.06;;;15.98;57.39
7668;BME280;3876;42.204;24.686;2023-10-08T01:11:19;99634.13;;;15.82;58.43
7668;BME280;3876;42.204;24.686;2023-10-08T01:13:52;99626.19;;;15.67;58.72
7668;BME280;3876;42.204;24.686;2023-10-08T01:16:20;99628.56;;;15.72;58.69
7668;BME280;3876;42.204;24.686;2023-10-08T01:18:47;99634.88;;;15.66;58.70
7668;BME280;3876;42.204;24.686;2023-10-08T01:21:19;99626.31;;;15.64;58.87
7668;BME280;3876;42.204;24.686;2023-10-08T01:24:01;99615.16;;;15.45;58.73
7668;BME280;3876;42.204;24.686;2023-10-08T01:26:31;99620.19;;;15.48;59.11
7668;BME280;3876;42.204;24.686;2023-10-08T01:28:58;99627.16;;;15.46;59.19
7668;BME280;3876;42.204;24.686;2023-10-08T01:31:29;99620.47;;;15.42;59.36
7668;BME280;3876;42.204;24.686;2023-10-08T01:33:57;99622.13;;;15.43;59.49
7668;BME280;3876;42.204;24.686;2023-10-08T01:36:24;99623.81;;;15.44;59.88
7668;BME280;3876;42.204;24.686;2023-10-08T01:38:51;99617.56;;;15.50;59.92
7668;BME280;3876;42.204;24.686;2023-10-08T01:41:21;99614.75;;;15.54;59.84
7668;BME280;3876;42.204;24.686;2023-10-08T01:43:55;99596.03;;;15.49;59.79
7668;BME280;3876;42.204;24.686;2023-10-08T01:46:23;99605.78;;;15.61;59.76
7668;BME280;3876;42.204;24.686;2023-10-08T01:48:52;99604.91;;;15.62;59.59
7668;BME280;3876;42.204;24.686;2023-10-08T01:51:25;99604.00;;;15.63;59.67
7668;BME280;3876;42.204;24.686;2023-10-08T01:54:02;99600.63;;;15.61;59.25
7668;BME280;3876;42.204;24.686;2023-10-08T01:56:38;99590.72;;;15.52;60.06
7668;BME280;3876;42.204;24.686;2023-10-08T01:59:07;99593.50;;;15.29;60.99
7668;BME280;3876;42.204;24.686;2023-10-08T02:01:35;99593.09;;;15.19;61.00
7668;BME280;3876;42.204;24.686;2023-10-08T02:04:02;99592.69;;;15.10;61.36
7668;BME280;3876;42.204;24.686;2023-10-08T02:06:29;99594.38;;;14.92;61.87
7668;BME280;3876;42.204;24.686;2023-10-08T02:08:56;99567.13;;;14.66;62.50
7668;BME280;3876;42.204;24.686;2023-10-08T02:11:24;99598.13;;;14.85;62.65
7668;BME280;3876;42.204;24.686;2023-10-08T02:13:54;99590.28;;;14.87;62.25
7668;BME280;3876;42.204;24.686;2023-10-08T02:16:21;99598.81;;;14.89;62.73
7668;BME280;3876;42.204;24.686;2023-10-08T02:18:48;99592.81;;;14.88;62.13
7668;BME280;3876;42.204;24.686;2023-10-08T02:21:16;99584.84;;;14.93;62.01
7668;BME280;3876;42.204;24.686;2023-10-08T02:23:43;99585.41;;;14.99;60.93
7668;BME280;3876;42.204;24.686;2023-10-08T02:26:10;99577.47;;;15.04;60.57
7668;BME280;3876;42.204;24.686;2023-10-08T02:28:37;99571.31;;;15.06;59.68
7668;BME280;3876;42.204;24.686;2023-10-08T02:31:05;99568.84;;;15.05;59.26
7668;BME280;3876;42.204;24.686;2023-10-08T02:33:34;99560.28;;;15.03;59.33
7668;BME280;3876;42.204;24.686;2023-10-08T02:36:02;99558.66;;;15.02;58.91
7668;BME280;3876;42.204;24.686;2023-10-08T02:38:30;99571.13;;;15.11;59.60
7668;BME280;3876;42.204;24.686;2023-10-08T02:41:03;99566.72;;;15.13;59.47
7668;BME280;3876;42.204;24.686;2023-10-08T02:43:32;99570.22;;;15.12;59.79
7668;BME280;3876;42.204;24.686;2023-10-08T02:45:59;99562.59;;;15.09;60.15
7668;BME280;3876;42.204;24.686;2023-10-08T02:48:27;99560.72;;;15.12;60.13
7668;BME280;3876;42.204;24.686;2023-10-08T02:50:55;99558.69;;;15.19;60.57
7668;BME280;3876;42.204;24.686;2023-10-08T02:53:32;99552.19;;;15.29;60.19
7668;BME280;3876;42.204;24.686;2023-10-08T02:55:59;99551.91;;;15.35;60.48
7668;BME280;3876;42.204;24.686;2023-10-08T02:58:27;99542.94;;;15.42;60.45
7668;BME280;3876;42.204;24.686;2023-10-08T03:00:56;99551.22;;;15.50;60.69
7668;BME280;3876;42.204;24.686;2023-10-08T03:03:23;99548.94;;;15.61;59.61
7668;BME280;3876;42.204;24.686;2023-10-08T03:05:52;99550.31;;;15.68;58.81
7668;BME280;3876;42.204;24.686;2023-10-08T03:08:22;99525.53;;;15.64;59.01
7668;BME280;3876;42.204;24.686;2023-10-08T03:10:50;99548.06;;;15.80;58.03
7668;BME280;3876;42.204;24.686;2023-10-08T03:13:21;99545.94;;;15.88;56.84
7668;BME280;3876;42.204;24.686;2023-10-08T03:15:48;99543.81;;;15.96;56.41
7668;BME280;3876;42.204;24.686;2023-10-08T03:18:33;99544.19;;;16.05;55.67
7668;BME280;3876;42.204;24.686;2023-10-08T03:21:03;99546.63;;;16.08;55.49
7668;BME280;3876;42.204;24.686;2023-10-08T03:23:31;99547.91;;;16.17;54.99
7668;BME280;3876;42.204;24.686;2023-10-08T03:26:01;99551.75;;;16.25;54.41
7668;BME280;3876;42.204;24.686;2023-10-08T03:28:36;99543.94;;;16.27;53.67
7668;BME280;3876;42.204;24.686;2023-10-08T03:31:03;99557.13;;;16.38;53.62
7668;BME280;3876;42.204;24.686;2023-10-08T03:33:31;99537.09;;;16.26;53.80
7668;BME280;3876;42.204;24.686;2023-10-08T03:36:01;99550.91;;;16.42;53.40
7668;BME280;3876;42.204;24.686;2023-10-08T03:38:36;99548.31;;;16.42;53.30
7668;BME280;3876;42.204;24.686;2023-10-08T03:41:16;99560.03;;;16.49;52.79
7668;BME280;3876;42.204;24.686;2023-10-08T03:43:46;99553.00;;;16.51;52.57
7668;BME280;3876;42.204;24.686;2023-10-08T03:46:19;99547.84;;;16.51;52.87
7668;BME280;3876;42.204;24.686;2023-10-08T03:48:49;99548.31;;;16.59;52.22
7668;BME280;3876;42.204;24.686;2023-10-08T03:51:17;99555.59;;;16.68;52.34
7668;BME280;3876;42.204;24.686;2023-10-08T03:53:47;99550.25;;;16.71;51.76
7668;BME280;3876;42.204;24.686;2023-10-08T03:56:42;99545.91;;;16.72;52.95
7668;BME280;3876;42.204;24.686;2023-10-08T03:59:12;99538.53;;;16.64;52.40
7668;BME280;3876;42.204;24.686;2023-10-08T04:01:40;99538.38;;;16.67;52.27
7668;BME280;3876;42.204;24.686;2023-10-08T04:04:07;99540.81;;;16.70;52.92
7668;BME280;3876;42.204;24.686;2023-10-08T04:06:38;99540.69;;;16.73;51.82
7668;BME280;3876;42.204;24.686;2023-10-08T04:09:14;99546.44;;;16.78;51.05
7668;BME280;3876;42.204;24.686;2023-10-08T04:11:50;99546.44;;;16.78;51.35
7668;BME280;3876;42.204;24.686;2023-10-08T04:14:22;99533.03;;;16.70;52.11
7668;BME280;3876;42.204;24.686;2023-10-08T04:16:48;99523.00;;;16.64;51.87
7668;BME280;3876;42.204;24.686;2023-10-08T04:19:17;99536.56;;;16.69;51.39
7668;BME280;3876;42.204;24.686;2023-10-08T04:21:45;99537.91;;;16.76;51.79
7668;BME280;3876;42.204;24.686;2023-10-08T04:24:21;99562.38;;;16.87;51.03
7668;BME280;3876;42.204;24.686;2023-10-08T04:26:55;99544.41;;;16.84;50.89
7668;BME280;3876;42.204;24.686;2023-10-08T04:29:28;99541.66;;;16.87;50.68
7668;BME280;3876;42.204;24.686;2023-10-08T04:31:58;99544.88;;;16.92;50.12
7668;BME280;3876;42.204;24.686;2023-10-08T04:34:33;99536.75;;;16.98;50.25
7668;BME280;3876;42.204;24.686;2023-10-08T04:37:00;99548.63;;;17.02;50.54
7668;BME280;3876;42.204;24.686;2023-10-08T04:39:30;99545.28;;;17.00;50.35
7668;BME280;3876;42.204;24.686;2023-10-08T04:42:01;99550.16;;;17.06;49.65
7668;BME280;3876;42.204;24.686;2023-10-08T04:44:33;99556.81;;;17.10;49.06
7668;BME280;3876;42.204;24.686;2023-10-08T04:46:59;99555.97;;;17.09;49.31
7668;BME280;3876;42.204;24.686;2023-10-08T04:49:32;99562.00;;;17.10;49.23
7668;BME280;3876;42.204;24.686;2023-10-08T04:52:00;99563.91;;;17.06;49.63
7668;BME280;3876;42.204;24.686;2023-10-08T04:54:32;99560.06;;;16.98;49.78
7668;BME280;3876;42.204;24.686;2023-10-08T04:56:59;99571.69;;;17.06;49.89
7668;BME280;3876;42.204;24.686;2023-10-08T04:59:27;99574.19;;;17.08;49.55
7668;BME280;3876;42.204;24.686;2023-10-08T05:01:59;99571.69;;;17.06;49.55
7668;BME280;3876;42.204;24.686;2023-10-08T05:04:45;99576.06;;;17.06;49.44
7668;BME280;3876;42.204;24.686;2023-10-08T05:07:22;99577.88;;;17.04;50.19
7668;BME280;3876;42.204;24.686;2023-10-08T05:10:08;99570.09;;;17.04;49.60
7668;BME280;3876;42.204;24.686;2023-10-08T05:12:56;99578.72;;;17.04;50.46
7668;BME280;3876;42.204;24.686;2023-10-08T05:15:41;99576.19;;;17.03;49.90
7668;BME280;3876;42.204;24.686;2023-10-08T05:18:15;99571.00;;;17.03;49.98
7668;BME280;3876;42.204;24.686;2023-10-08T05:20:49;99562.16;;;17.07;50.63
7668;BME280;3876;42.204;24.686;2023-10-08T05:23:41;99563.84;;;17.08;49.19
7668;BME280;3876;42.204;24.686;2023-10-08T05:26:38;99552.97;;;17.17;49.42
7668;BME280;3876;42.204;24.686;2023-10-08T05:29:08;99549.31;;;17.21;49.36
7668;BME280;3876;42.204;24.686;2023-10-08T05:31:49;99548.78;;;17.30;49.15
7668;BME280;3876;42.204;24.686;2023-10-08T05:34:35;99548.28;;;17.39;49.10
7668;BME280;3876;42.204;24.686;2023-10-08T05:37:08;99549.59;;;17.46;48.58
7668;BME280;3876;42.204;24.686;2023-10-08T05:39:58;99556.72;;;17.58;48.74
7668;BME280;3876;42.204;24.686;2023-10-08T05:42:38;99555.75;;;17.61;49.18
7668;BME280;3876;42.204;24.686;2023-10-08T05:45:13;99558.97;;;17.64;48.73
7668;BME280;3876;42.204;24.686;2023-10-08T05:47:55;99551.38;;;17.61;48.52
7668;BME280;3876;42.204;24.686;2023-10-08T05:50:39;99561.97;;;17.72;48.97
7668;BME280;3876;42.204;24.686;2023-10-08T05:53:07;99566.81;;;17.78;48.50
7668;BME280;3876;42.204;24.686;2023-10-08T05:55:55;99557.94;;;17.82;48.35
7668;BME280;3876;42.204;24.686;2023-10-08T05:58:43;99568.16;;;18.00;47.68
7668;BME280;3876;42.204;24.686;2023-10-08T06:01:25;99575.44;;;18.09;46.31
7668;BME280;3876;42.204;24.686;2023-10-08T06:04:05;99579.53;;;18.27;45.05
7668;BME280;3876;42.204;24.686;2023-10-08T06:06:46;99578.81;;;18.39;44.63
7668;BME280;3876;42.204;24.686;2023-10-08T06:09:23;99569.41;;;18.52;44.68
7668;BME280;3876;42.204;24.686;2023-10-08T06:12:00;99580.16;;;18.74;43.05
7668;BME280;3876;42.204;24.686;2023-10-08T06:14:36;99579.63;;;18.83;43.46
7668;BME280;3876;42.204;24.686;2023-10-08T06:17:19;99576.16;;;18.97;42.64
7668;BME280;3876;42.204;24.686;2023-10-08T06:20:21;99569.19;;;19.12;43.24
7668;BME280;3876;42.204;24.686;2023-10-08T06:22:51;99568.63;;;19.21;43.13
7668;BME280;3876;42.204;24.686;2023-10-08T06:25:25;99571.47;;;19.45;42.00
7668;BME280;3876;42.204;24.686;2023-10-08T06:27:53;99565.28;;;19.60;42.92
7668;BME280;3876;42.204;24.686;2023-10-08T06:30:22;99561.41;;;19.79;40.78
7668;BME280;3876;42.204;24.686;2023-10-08T06:32:55;99537.66;;;19.84;41.21
7668;BME280;3876;42.204;24.686;2023-10-08T06:35:22;99555.75;;;20.12;40.58
7668;BME280;3876;42.204;24.686;2023-10-08T06:37:51;99555.84;;;20.23;40.10
7668;BME280;3876;42.204;24.686;2023-10-08T06:40:21;99554.84;;;20.38;39.84
7668;BME280;3876;42.204;24.686;2023-10-08T06:43:08;99550.88;;;20.58;39.80
7668;BME280;3876;42.204;24.686;2023-10-08T06:45:42;99555.03;;;20.73;39.42
7668;BME280;3876;42.204;24.686;2023-10-08T06:48:09;99549.09;;;20.84;40.52
7668;BME280;3876;42.204;24.686;2023-10-08T06:50:43;99552.06;;;21.03;39.58
7668;BME280;3876;42.204;24.686;2023-10-08T06:53:10;99541.19;;;21.22;38.99
7668;BME280;3876;42.204;24.686;2023-10-08T06:55:39;99547.59;;;21.41;39.36
7668;BME280;3876;42.204;24.686;2023-10-08T06:58:07;99545.63;;;21.56;38.90
7668;BME280;3876;42.204;24.686;2023-10-08T07:00:35;99538.94;;;21.65;38.67
7668;BME280;3876;42.204;24.686;2023-10-08T07:03:13;99546.50;;;21.91;37.93
7668;BME280;3876;42.204;24.686;2023-10-08T07:05:42;99551.78;;;22.14;38.34
7668;BME280;3876;42.204;24.686;2023-10-08T07:08:10;99539.38;;;22.28;38.27
7668;BME280;3876;42.204;24.686;2023-10-08T07:10:39;99537.72;;;22.49;37.54
7668;BME280;3876;42.204;24.686;2023-10-08T07:13:08;99546.66;;;22.69;36.79
7668;BME280;3876;42.204;24.686;2023-10-08T07:15:35;99525.28;;;22.86;36.80
7668;BME280;3876;42.204;24.686;2023-10-08T07:18:05;99536.06;;;23.04;36.34
7668;BME280;3876;42.204;24.686;2023-10-08T07:20:40;99533.19;;;23.18;35.88
7668;BME280;3876;42.204;24.686;2023-10-08T07:23:11;99537.06;;;23.35;36.00
7668;BME280;3876;42.204;24.686;2023-10-08T07:25:52;99531.34;;;23.52;35.75
7668;BME280;3876;42.204;24.686;2023-10-08T07:28:22;99508.94;;;23.59;35.77
7668;BME280;3876;42.204;24.686;2023-10-08T07:30:51;99528.63;;;23.74;34.89
7668;BME280;3876;42.204;24.686;2023-10-08T07:33:17;99523.53;;;23.93;35.87
7668;BME280;3876;42.204;24.686;2023-10-08T07:35:46;99524.88;;;24.09;34.80
7668;BME280;3876;42.204;24.686;2023-10-08T07:38:25;99522.91;;;24.22;33.27
7668;BME280;3876;42.204;24.686;2023-10-08T07:40:52;99517.75;;;24.41;33.97
7668;BME280;3876;42.204;24.686;2023-10-08T07:43:20;99514.97;;;24.63;33.59
7668;BME280;3876;42.204;24.686;2023-10-08T07:45:48;99487.19;;;24.51;33.02
7668;BME280;3876;42.204;24.686;2023-10-08T07:48:14;99514.59;;;24.77;33.28
7668;BME280;3876;42.204;24.686;2023-10-08T07:50:43;99516.19;;;24.89;33.10
7668;BME280;3876;42.204;24.686;2023-10-08T07:53:12;99524.09;;;25.08;32.19
7668;BME280;3876;42.204;24.686;2023-10-08T07:55:47;99498.72;;;25.19;32.42
7668;BME280;3876;42.204;24.686;2023-10-08T07:58:15;99509.91;;;25.40;31.56
7668;BME280;3876;42.204;24.686;2023-10-08T08:00:43;99509.09;;;25.49;31.43
7668;BME280;3876;42.204;24.686;2023-10-08T08:03:20;99507.06;;;25.62;31.09
7668;BME280;3876;42.204;24.686;2023-10-08T08:05:47;99504.16;;;25.75;30.87
7668;BME280;3876;42.204;24.686;2023-10-08T08:08:20;99493.47;;;25.86;31.51
7668;BME280;3876;42.204;24.686;2023-10-08T08:10:49;99499.00;;;25.92;31.07
7668;BME280;3876;42.204;24.686;2023-10-08T08:13:24;99483.78;;;25.96;29.99
7668;BME280;3876;42.204;24.686;2023-10-08T08:15:54;99495.09;;;26.16;29.99
7668;BME280;3876;42.204;24.686;2023-10-08T08:18:24;99498.09;;;26.30;29.25
7668;BME280;3876;42.204;24.686;2023-10-08T08:20:59;99500.69;;;26.49;29.77
7668;BME280;3876;42.204;24.686;2023-10-08T08:23:29;99487.44;;;26.69;29.61
7668;BME280;3876;42.204;24.686;2023-10-08T08:25:57;99497.66;;;26.81;29.08
7668;BME280;3876;42.204;24.686;2023-10-08T08:28:38;99475.47;;;26.84;28.56
7668;BME280;3876;42.204;24.686;2023-10-08T08:31:06;99480.38;;;26.96;28.33
7668;BME280;3876;42.204;24.686;2023-10-08T08:33:40;99479.78;;;27.02;30.22
7668;BME280;3876;42.204;24.686;2023-10-08T08:36:19;99484.16;;;27.11;28.00
7668;BME280;3876;42.204;24.686;2023-10-08T08:38:48;99480.03;;;27.27;28.55
7668;BME280;3876;42.204;24.686;2023-10-08T08:41:15;99472.31;;;27.43;28.05
7668;BME280;3876;42.204;24.686;2023-10-08T08:43:47;99463.69;;;27.41;27.56
7668;BME280;3876;42.204;24.686;2023-10-08T08:46:14;99465.38;;;27.42;27.76
7668;BME280;3876;42.204;24.686;2023-10-08T08:48:43;99474.50;;;27.47;28.28
7668;BME280;3876;42.204;24.686;2023-10-08T08:51:10;99465.75;;;27.64;27.56
7668;BME280;3876;42.204;24.686;2023-10-08T08:53:39;99459.25;;;27.77;27.69
7668;BME280;3876;42.204;24.686;2023-10-08T08:56:09;99465.22;;;27.79;28.38
7668;BME280;3876;42.204;24.686;2023-10-08T08:58:36;99449.59;;;27.85;27.78
7668;BME280;3876;42.204;24.686;2023-10-08T09:01:06;99466.25;;;28.11;28.15
7668;BME280;3876;42.204;24.686;2023-10-08T09:03:35;99461.38;;;27.99;27.20
7668;BME280;3876;42.204;24.686;2023-10-08T09:06:02;99443.03;;;27.89;27.30
7668;BME280;3876;42.204;24.686;2023-10-08T09:08:33;99451.63;;;27.91;27.13
7668;BME280;3876;42.204;24.686;2023-10-08T09:11:00;99449.97;;;27.90;27.98
7668;BME280;3876;42.204;24.686;2023-10-08T09:13:31;99442.91;;;27.99;28.79
7668;BME280;3876;42.204;24.686;2023-10-08T09:16:06;99442.00;;;28.08;28.54
7668;BME280;3876;42.204;24.686;2023-10-08T09:18:34;99431.97;;;28.11;28.18
7668;BME280;3876;42.204;24.686;2023-10-08T09:21:08;99431.25;;;28.27;28.35
7668;BME280;3876;42.204;24.686;2023-10-08T09:23:39;99427.47;;;28.30;27.27
7668;BME280;3876;42.204;24.686;2023-10-08T09:26:09;99422.53;;;28.35;27.73
7668;BME280;3876;42.204;24.686;2023-10-08T09:28:38;99429.47;;;28.36;28.53
7668;BME280;3876;42.204;24.686;2023-10-08T09:31:10;99429.16;;;28.39;27.66
7668;BME280;3876;42.204;24.686;2023-10-08T09:33:37;99421.91;;;28.41;27.56
7668;BME280;3876;42.204;24.686;2023-10-08T09:36:04;99419.97;;;28.51;28.75
7668;BME280;3876;42.204;24.686;2023-10-08T09:38:33;99396.56;;;28.48;27.52
7668;BME280;3876;42.204;24.686;2023-10-08T09:41:00;99407.94;;;28.56;27.15
7668;BME280;3876;42.204;24.686;2023-10-08T09:43:28;99400.88;;;28.57;28.37
7668;BME280;3876;42.204;24.686;2023-10-08T09:46:08;99401.22;;;28.62;28.22
7668;BME280;3876;42.204;24.686;2023-10-08T09:48:37;99399.63;;;28.69;27.36
7668;BME280;3876;42.204;24.686;2023-10-08T09:51:10;99399.31;;;28.72;27.29
7668;BME280;3876;42.204;24.686;2023-10-08T09:53:43;99390.06;;;28.68;26.75
7668;BME280;3876;42.204;24.686;2023-10-08T09:56:14;99392.38;;;28.79;27.61
7668;BME280;3876;42.204;24.686;2023-10-08T09:58:43;99398.19;;;28.91;27.11
7668;BME280;3876;42.204;24.686;2023-10-08T10:01:13;99382.84;;;28.94;27.71
7668;BME280;3876;42.204;24.686;2023-10-08T10:03:40;99397.34;;;29.14;28.22
7668;BME280;3876;42.204;24.686;2023-10-08T10:06:17;99386.78;;;29.14;27.93
7668;BME280;3876;42.204;24.686;2023-10-08T10:08:45;99384.31;;;29.21;27.10
7668;BME280;3876;42.204;24.686;2023-10-08T10:11:12;99383.22;;;29.40;27.45
7668;BME280;3876;42.204;24.686;2023-10-08T10:13:42;99394.44;;;29.42;28.08
7668;BME280;3876;42.204;24.686;2023-10-08T10:16:13;99381.72;;;29.45;27.22
7668;BME280;3876;42.204;24.686;2023-10-08T10:18:43;99380.22;;;29.51;27.95
7668;BME280;3876;42.204;24.686;2023-10-08T10:21:34;99378.25;;;29.53;27.08
7668;BME280;3876;42.204;24.686;2023-10-08T10:24:03;99363.34;;;29.60;27.92
7668;BME280;3876;42.204;24.686;2023-10-08T10:26:32;99365.00;;;29.61;26.92
7668;BME280;3876;42.204;24.686;2023-10-08T10:29:22;99370.81;;;29.48;27.10
7668;BME280;3876;42.204;24.686;2023-10-08T10:31:56;99368.31;;;29.47;28.01
7668;BME280;3876;42.204;24.686;2023-10-08T10:34:25;99354.81;;;29.42;28.52
7668;BME280;3876;42.204;24.686;2023-10-08T10:36:54;99336.31;;;29.42;27.06
7668;BME280;3876;42.204;24.686;2023-10-08T10:39:23;99339.41;;;29.53;28.34
7668;BME280;3876;42.204;24.686;2023-10-08T10:41:54;99335.94;;;29.61;27.23
7668;BME280;3876;42.204;24.686;2023-10-08T10:44:23;99336.59;;;29.63;29.17
7668;BME280;3876;42.204;24.686;2023-10-08T10:46:50;99330.66;;;29.69;27.96
7668;BME280;3876;42.204;24.686;2023-10-08T10:49:19;99332.28;;;29.70;28.53
7668;BME280;3876;42.204;24.686;2023-10-08T10:51:47;99341.56;;;29.66;27.48
7668;BME280;3876;42.204;24.686;2023-10-08T10:54:18;99333.69;;;29.50;27.27
7668;BME280;3876;42.204;24.686;2023-10-08T10:56:49;99335.97;;;29.53;28.54
7668;BME280;3876;42.204;24.686;2023-10-08T10:59:29;99319.94;;;29.62;27.84
7668;BME280;3876;42.204;24.686;2023-10-08T11:02:02;99321.03;;;29.76;27.81
7668;BME280;3876;42.204;24.686;2023-10-08T11:04:35;99312.56;;;29.97;27.57
7668;BME280;3876;42.204;24.686;2023-10-08T11:07:13;99313.88;;;30.01;28.21
7668;BME280;3876;42.204;24.686;2023-10-08T11:09:42;99303.66;;;29.98;27.60
7668;BME280;3876;42.204;24.686;2023-10-08T11:12:10;99316.69;;;29.99;27.35
7668;BME280;3876;42.204;24.686;2023-10-08T11:14:46;99294.22;;;29.95;28.38
7668;BME280;3876;42.204;24.686;2023-10-08T11:17:13;99303.31;;;30.01;28.21
7668;BME280;3876;42.204;24.686;2023-10-08T11:19:42;99266.16;;;29.94;27.86
7668;BME280;3876;42.204;24.686;2023-10-08T11:22:11;99285.56;;;30.09;28.30
7668;BME280;3876;42.204;24.686;2023-10-08T11:24:42;99289.22;;;30.08;27.96
7668;BME280;3876;42.204;24.686;2023-10-08T11:27:13;99264.16;;;29.96;27.97
7668;BME280;3876;42.204;24.686;2023-10-08T11:29:47;99263.47;;;30.02;27.82
7668;BME280;3876;42.204;24.686;2023-10-08T11:32:22;99276.69;;;30.02;28.57
7668;BME280;3876;42.204;24.686;2023-10-08T11:34:55;99277.34;;;30.04;28.09
7668;BME280;3876;42.204;24.686;2023-10-08T11:37:28;99277.91;;;29.92;27.27
7668;BME280;3876;42.204;24.686;2023-10-08T11:39:55;99269.16;;;29.91;27.51
7668;BME280;3876;42.204;24.686;2023-10-08T11:42:24;99274.38;;;29.99;28.22
7668;BME280;3876;42.204;24.686;2023-10-08T11:45:10;99253.59;;;29.96;28.46
7668;BME280;3876;42.204;24.686;2023-10-08T11:47:49;99275.81;;;30.10;27.94
7668;BME280;3876;42.204;24.686;2023-10-08T11:50:24;99261.84;;;30.01;27.96
7668;BME280;3876;42.204;24.686;2023-10-08T11:52:59;99266.94;;;30.03;27.83
7668;BME280;3876;42.204;24.686;2023-10-08T11:55:31;99257.88;;;29.97;28.09
7668;BME280;3876;42.204;24.686;2023-10-08T11:58:01;99251.63;;;29.98;28.33
7668;BME280;3876;42.204;24.686;2023-10-08T12:00:36;99251.34;;;29.85;27.10
7668;BME280;3876;42.204;24.686;2023-10-08T12:03:09;99245.72;;;29.88;27.93
7668;BME280;3876;42.204;24.686;2023-10-08T12:05:39;99242.41;;;29.86;27.08
7668;BME280;3876;42.204;24.686;2023-10-08T12:08:13;99228.53;;;29.84;27.94
7668;BME280;3876;42.204;24.686;2023-10-08T12:10:42;99243.22;;;29.87;26.92
7668;BME280;3876;42.204;24.686;2023-10-08T12:13:11;99237.25;;;29.93;27.49
7668;BME280;3876;42.204;24.686;2023-10-08T12:15:38;99238.41;;;29.90;26.72
7668;BME280;3876;42.204;24.686;2023-10-08T12:18:07;99229.03;;;29.88;27.39
7668;BME280;3876;42.204;24.686;2023-10-08T12:20:51;99225.72;;;29.86;26.94
7668;BME280;3876;42.204;24.686;2023-10-08T12:23:21;99226.19;;;29.89;28.11
7668;BME280;3876;42.204;24.686;2023-10-08T12:25:51;99229.50;;;29.91;27.51
7668;BME280;3876;42.204;24.686;2023-10-08T12:28:21;99229.63;;;29.98;27.83
7668;BME280;3876;42.204;24.686;2023-10-08T12:30:49;99224.81;;;30.01;27.74
7668;BME280;3876;42.204;24.686;2023-10-08T12:33:17;99221.50;;;29.99;27.87
7668;BME280;3876;42.204;24.686;2023-10-08T12:35:46;99210.09;;;29.99;27.72
7668;BME280;3876;42.204;24.686;2023-10-08T12:38:14;99221.03;;;29.96;27.00
7668;BME280;3876;42.204;24.686;2023-10-08T12:40:44;99225.19;;;29.98;28.10
7668;BME280;3876;42.204;24.686;2023-10-08T12:43:18;99201.75;;;29.87;27.69
7668;BME280;3876;42.204;24.686;2023-10-08T12:45:46;99213.06;;;30.04;28.35
7668;BME280;3876;42.204;24.686;2023-10-08T12:48:21;99224.81;;;30.01;26.77
7668;BME280;3876;42.204;24.686;2023-10-08T12:50:49;99220.34;;;30.02;27.48
7668;BME280;3876;42.204;24.686;2023-10-08T12:53:24;99213.41;;;30.01;27.22
7668;BME280;3876;42.204;24.686;2023-10-08T12:55:59;99212.41;;;30.02;27.52
7668;BME280;3876;42.204;24.686;2023-10-08T12:58:31;99212.53;;;30.08;27.77
7668;BME280;3876;42.204;24.686;2023-10-08T13:01:05;99208.50;;;29.98;26.94
7668;BME280;3876;42.204;24.686;2023-10-08T13:03:35;99215.97;;;29.86;26.57
7668;BME280;3876;42.204;24.686;2023-10-08T13:06:07;99209.69;;;29.79;26.96
7668;BME280;3876;42.204;24.686;2023-10-08T13:08:38;99205.94;;;29.74;27.37
7668;BME280;3876;42.204;24.686;2023-10-08T13:11:05;99206.81;;;29.66;27.79
7668;BME280;3876;42.204;24.686;2023-10-08T13:13:32;99217.06;;;29.61;27.68
7668;BME280;3876;42.204;24.686;2023-10-08T13:16:01;99195.28;;;29.51;28.13
7668;BME280;3876;42.204;24.686;2023-10-08T13:18:32;99197.16;;;29.42;27.88
7668;BME280;3876;42.204;24.686;2023-10-08T13:21:03;99197.03;;;29.36;27.09
7668;BME280;3876;42.204;24.686;2023-10-08T13:23:29;99187.97;;;29.30;28.59
7668;BME280;3876;42.204;24.686;2023-10-08T13:26:00;99196.19;;;29.35;28.31
7668;BME280;3876;42.204;24.686;2023-10-08T13:28:29;99195.34;;;29.35;28.17
7668;BME280;3876;42.204;24.686;2023-10-08T13:30:59;99196.38;;;29.34;28.12
7668;BME280;3876;42.204;24.686;2023-10-08T13:33:31;99196.03;;;29.29;28.68